Country
Station

 

Weather  for  Kristiansand/Kjevik  -  Norway    Norway

  
17 °C (63 °F)
    
 
 

Current METAR for Kristiansand/Kjevik is :

ENCN 191520Z 20018KT 9000 BKN008 17/16 Q1004

 

This is a report for Kristiansand/Kjevik - Norway.
 
The report was made 21 minutes ago, at 15:20 UTC .
The wind was blowing at a speed of 9.3 meters per second (20.7 miles per hour) from south/southwest (200°).
 
The temperature was 17 °C (63 °F), with a dew-point at 16 °C (61 °F).
The atmospheric pressure was 1004 hPa (29.65 inHg).
The relative humidity was 93.8%.
 
There were broken clouds at a height of 244 meters (800 feet).
 
The overall visibility was 9.0 kilometers (5.6 miles).
 

 
 
 
 

Country :   A   B   C   D   E   F   G   H   I   J   K   L   M   N   O   P   Q   R   S   T   U   V   W   Y   Z

 

Site Info  |  Disclaimer  |  Credits  |  Privacy
Contact us  |  Add to favorites
© 2013-2018 METARs - All rights reserved